Farmersville's Hourly Summary for Thursday, April 20, 2017
Hour Temp
(f)
RH
(%)
Solar Rad.
(MJ/m2)
Rainfall
(in)
Wind
(mph)
4/20/2017 12:00 AM 70 80 0 0 3.85
4/20/2017 1:00 AM 69 85 0 0 3.68
4/20/2017 2:00 AM 68 100 0 0 2.65
4/20/2017 3:00 AM 68 100 0 0 3.41
4/20/2017 4:00 AM 67 100 0 0 3.64
4/20/2017 5:00 AM 67 100 0 0 4.19
4/20/2017 6:00 AM 68 100 0 0 5.88
4/20/2017 7:00 AM 68 100 0 0 5.15
4/20/2017 8:00 AM 68 100 0.08 0 3.93
4/20/2017 9:00 AM 69 100 0.3 0 3.28
4/20/2017 10:00 AM 70 99 0.56 0 2.94
4/20/2017 11:00 AM 72 74 0.8 0 3.09
4/20/2017 12:00 PM 74 70 1.88 0 3.8
4/20/2017 1:00 PM 76 65 1.81 0 4.39
4/20/2017 2:00 PM 78 60 2.09 0 4.26
4/20/2017 3:00 PM 79 60 1.78 0 4.28
4/20/2017 4:00 PM 81 55 2.15 0 3.91
4/20/2017 5:00 PM 80 56 1.25 0 3.16
4/20/2017 6:00 PM 80 57 1 0 2.85
4/20/2017 7:00 PM 80 58 0.77 0 2.75
4/20/2017 8:00 PM 77 60 0.19 0 1.27
4/20/2017 9:00 PM 73 70 0 0 0.42
4/20/2017 10:00 PM 71 75 0 0 0.15
4/20/2017 11:00 PM 70 81 0 0 1.46
Data Summary 72 79 14.66 0.00 3.27